Terminal Aerodrome Forecast
Issued by NWS

Home | Current Version | Previous Version | Text Only | Print | Product List | Glossary On
Versions: 1 2 3 4 5 6 7 8 9 10 11 12 13 14 15 16 17 18 19 20 21 22 23 24
000
FTPA31 PHFO 211700
TAFJHM
TAF
PHJH 211736Z 2118/2218 VRB05KT P6SM FEW025 FEW050
     FM212000 05011G15KT P6SM FEW030 SCT050
     FM220500 05008KT P6SM FEW030 SCT050
      AMD NOT SKED AFT 220400=

USA.gov is the U.S. government's official web portal to all federal, state and local government web resources and services.